createdAt,value
2018-03-23T00:00:06.530Z,0.00
2018-03-23T00:01:06.505Z,0.00
2018-03-23T00:02:06.471Z,0.00
2018-03-23T00:03:06.481Z,0.00
2018-03-23T00:04:06.636Z,0.00
2018-03-23T00:05:06.427Z,0.00
2018-03-23T00:06:06.411Z,0.00
2018-03-23T00:07:06.348Z,0.00
2018-03-23T00:08:06.343Z,0.00
2018-03-23T00:09:06.314Z,0.00
2018-03-23T00:10:06.491Z,0.00
2018-03-23T00:11:06.265Z,0.00
2018-03-23T00:12:06.240Z,0.00
2018-03-23T00:13:06.225Z,0.00
2018-03-23T00:14:06.734Z,0.00
2018-03-23T00:15:06.172Z,0.00
2018-03-23T00:16:06.353Z,0.00
2018-03-23T00:17:06.134Z,0.00
2018-03-23T00:18:06.096Z,0.00
2018-03-23T00:19:06.109Z,0.00
2018-03-23T00:20:06.036Z,0.00
2018-03-23T00:21:06.795Z,0.00
2018-03-23T00:22:06.107Z,0.00
2018-03-23T00:23:05.978Z,0.00
2018-03-23T00:24:05.954Z,0.00
2018-03-23T00:25:05.953Z,0.00
2018-03-23T00:26:05.987Z,0.00
2018-03-23T00:27:06.194Z,0.00
2018-03-23T00:28:05.860Z,0.00
2018-03-23T00:29:05.861Z,0.00
2018-03-23T00:30:05.810Z,0.00
2018-03-23T00:31:05.818Z,0.00
2018-03-23T00:32:05.826Z,0.00
2018-03-23T00:33:05.939Z,0.00
2018-03-23T00:34:05.711Z,0.00
2018-03-23T00:35:06.223Z,0.00
2018-03-23T00:36:05.677Z,0.00
2018-03-23T00:37:05.670Z,0.00
2018-03-23T00:38:05.827Z,0.00
2018-03-23T00:39:05.619Z,0.00
2018-03-23T00:40:05.593Z,0.00
2018-03-23T00:41:05.660Z,0.00
2018-03-23T00:42:05.572Z,0.00
2018-03-23T00:43:05.704Z,0.00
2018-03-23T00:44:05.493Z,0.00
2018-03-23T00:45:05.467Z,0.00
2018-03-23T00:46:05.980Z,0.00
2018-03-23T00:47:05.449Z,0.00
2018-03-23T00:48:05.398Z,0.00
2018-03-23T00:49:05.446Z,0.00
2018-03-23T00:50:05.370Z,0.00
2018-03-23T00:51:05.311Z,0.00
2018-03-23T00:52:05.807Z,0.00
2018-03-23T00:53:05.262Z,0.00
2018-03-23T00:54:05.335Z,0.00
2018-03-23T00:55:05.211Z,0.00
2018-03-23T00:56:05.179Z,0.00
2018-03-23T00:57:05.162Z,0.00
2018-03-23T00:58:05.136Z,0.00
2018-03-23T00:59:05.704Z,0.00
2018-03-23T01:00:05.190Z,0.00
2018-03-23T01:01:05.053Z,0.00
2018-03-23T01:02:05.036Z,0.00
2018-03-23T01:03:05.019Z,0.00
2018-03-23T01:04:04.983Z,0.00
2018-03-23T01:05:05.555Z,0.00
2018-03-23T01:06:05.067Z,0.00
2018-03-23T01:07:04.942Z,0.00
2018-03-23T01:08:04.892Z,0.00
2018-03-23T01:09:04.911Z,0.00
2018-03-23T01:10:04.859Z,0.00
2018-03-23T01:11:04.918Z,0.00
2018-03-23T01:12:04.836Z,0.00
2018-03-23T01:13:04.848Z,0.00
2018-03-23T01:14:04.716Z,0.00
2018-03-23T01:15:04.775Z,0.00
2018-03-23T01:16:04.817Z,0.00
2018-03-23T01:17:04.657Z,0.00
2018-03-23T01:18:04.641Z,0.00
2018-03-23T01:19:04.618Z,0.00
2018-03-23T01:20:04.611Z,0.00
2018-03-23T01:21:04.651Z,0.00
2018-03-23T01:22:04.559Z,0.00
2018-03-23T01:23:04.554Z,0.00
2018-03-23T01:24:05.040Z,0.00
2018-03-23T01:25:04.454Z,0.00
2018-03-23T01:26:04.434Z,0.00
2018-03-23T01:27:05.462Z,0.00
2018-03-23T01:28:04.428Z,0.00
2018-03-23T01:29:04.353Z,0.00
2018-03-23T01:30:04.335Z,0.00
2018-03-23T01:31:04.321Z,0.00
2018-03-23T01:32:04.342Z,0.00
2018-03-23T01:33:05.398Z,0.00
2018-03-23T01:34:05.553Z,0.00
2018-03-23T01:35:04.783Z,0.00
2018-03-23T01:36:04.915Z,0.00
2018-03-23T01:37:04.282Z,0.00
2018-03-23T01:38:04.337Z,0.00
2018-03-23T01:39:04.306Z,0.00
2018-03-23T01:40:04.098Z,0.00
2018-03-23T01:41:04.037Z,0.00
2018-03-23T01:43:04.035Z,0.00
2018-03-23T01:44:04.639Z,0.00
2018-03-23T01:45:03.976Z,0.00
2018-03-23T01:46:03.938Z,0.00
2018-03-23T01:47:04.475Z,0.00
2018-03-23T01:48:03.871Z,0.00
2018-03-23T01:49:03.944Z,0.00
2018-03-23T01:50:04.371Z,0.00
2018-03-23T01:51:03.818Z,0.00
2018-03-23T01:52:03.795Z,0.00
2018-03-23T01:53:03.758Z,0.00
2018-03-23T01:54:04.417Z,0.00
2018-03-23T01:55:03.722Z,0.00
2018-03-23T01:56:04.231Z,0.00
2018-03-23T01:57:04.253Z,0.00
2018-03-23T01:58:03.939Z,0.00
2018-03-23T01:59:04.234Z,0.00
2018-03-23T02:00:04.146Z,0.00
2018-03-23T02:01:04.063Z,0.00
2018-03-23T02:02:04.067Z,0.00
2018-03-23T02:03:04.114Z,0.00
2018-03-23T02:04:04.044Z,0.00
2018-03-23T02:05:03.548Z,0.00
2018-03-23T02:06:03.453Z,0.00
2018-03-23T02:07:03.421Z,0.00
2018-03-23T02:08:03.924Z,0.00
2018-03-23T02:09:03.815Z,0.00
2018-03-23T02:10:03.339Z,0.00
2018-03-23T02:11:03.943Z,0.00
2018-03-23T02:12:04.286Z,0.00
2018-03-23T02:13:03.782Z,0.00
2018-03-23T02:14:03.734Z,0.00
2018-03-23T02:15:03.227Z,0.00
2018-03-23T02:16:03.268Z,0.00
2018-03-23T02:17:03.864Z,0.00
2018-03-23T02:18:03.157Z,0.00
2018-03-23T02:19:03.127Z,0.00
2018-03-23T02:20:03.649Z,0.00
2018-03-23T02:21:03.622Z,0.00
2018-03-23T02:22:03.754Z,0.00
2018-03-23T02:23:03.000Z,0.00
2018-03-23T02:24:03.517Z,0.00
2018-03-23T02:25:02.972Z,0.00
2018-03-23T02:26:02.948Z,0.00
2018-03-23T02:27:03.037Z,0.00
2018-03-23T02:28:03.420Z,0.00
2018-03-23T02:29:03.323Z,0.00
2018-03-23T02:30:03.375Z,0.00
2018-03-23T02:31:03.335Z,0.00
2018-03-23T02:32:02.875Z,0.00
2018-03-23T02:33:02.751Z,0.00
2018-03-23T02:34:03.276Z,0.00
2018-03-23T02:35:02.683Z,0.00
2018-03-23T02:36:02.675Z,0.00
2018-03-23T02:37:02.773Z,0.00
2018-03-23T02:38:02.635Z,0.00
2018-03-23T02:39:02.611Z,0.00
2018-03-23T02:40:02.573Z,0.00
2018-03-23T02:41:02.554Z,0.00
2018-03-23T02:42:02.651Z,0.00
2018-03-23T02:43:02.483Z,0.00
2018-03-23T02:44:02.512Z,0.00
2018-03-23T02:45:02.991Z,0.00
2018-03-23T02:46:02.423Z,0.00
2018-03-23T02:47:02.407Z,0.00
2018-03-23T02:48:02.469Z,0.00
2018-03-23T02:49:02.343Z,0.00
2018-03-23T02:50:02.322Z,0.00
2018-03-23T02:51:02.302Z,0.00
2018-03-23T02:52:02.320Z,0.00
2018-03-23T02:53:02.334Z,0.00
2018-03-23T02:54:02.516Z,0.00
2018-03-23T02:55:02.827Z,0.00
2018-03-23T02:56:02.773Z,0.00
2018-03-23T02:57:02.123Z,0.00
2018-03-23T02:58:02.118Z,0.00
2018-03-23T02:59:02.227Z,0.00
2018-03-23T03:00:02.052Z,0.00
2018-03-23T03:01:02.037Z,0.00
2018-03-23T03:02:02.068Z,0.00
2018-03-23T03:03:01.991Z,0.00
2018-03-23T03:04:02.063Z,0.00
2018-03-23T03:05:01.955Z,0.00
2018-03-23T03:06:01.906Z,0.00
2018-03-23T03:07:01.887Z,0.00
2018-03-23T03:08:01.936Z,0.00
2018-03-23T03:09:01.913Z,0.00
2018-03-23T03:10:01.797Z,0.00
2018-03-23T03:11:01.762Z,0.00
2018-03-23T03:12:01.795Z,0.00
2018-03-23T03:13:01.769Z,0.00
2018-03-23T03:14:02.051Z,0.00
2018-03-23T03:15:01.663Z,0.00
2018-03-23T03:16:02.212Z,0.00
2018-03-23T03:17:01.729Z,0.00
2018-03-23T03:18:01.621Z,0.00
2018-03-23T03:19:01.682Z,0.00
2018-03-23T03:20:02.075Z,0.00
2018-03-23T03:21:01.504Z,0.00
2018-03-23T03:22:02.031Z,0.00
2018-03-23T03:23:01.718Z,0.00
2018-03-23T03:24:01.435Z,0.00
2018-03-23T03:25:01.505Z,0.00
2018-03-23T03:26:01.396Z,0.00
2018-03-23T03:27:01.410Z,0.00
2018-03-23T03:28:01.415Z,0.00
2018-03-23T03:29:01.742Z,0.00
2018-03-23T03:30:01.327Z,0.00
2018-03-23T03:31:01.407Z,0.00
2018-03-23T03:32:01.267Z,0.00
2018-03-23T03:33:01.754Z,0.00
2018-03-23T03:34:01.191Z,0.00
2018-03-23T03:35:01.197Z,0.00
2018-03-23T03:36:01.215Z,0.00
2018-03-23T03:37:01.100Z,0.00
2018-03-23T03:38:01.078Z,0.00
2018-03-23T03:39:01.045Z,0.00
2018-03-23T03:40:01.030Z,0.00
2018-03-23T03:41:01.095Z,0.00
2018-03-23T03:42:00.975Z,0.00
2018-03-23T03:43:00.959Z,0.00
2018-03-23T03:44:00.939Z,0.00
2018-03-23T03:45:00.905Z,0.00
2018-03-23T03:46:00.951Z,0.00
2018-03-23T03:47:00.848Z,0.00
2018-03-23T03:48:01.347Z,0.00
2018-03-23T03:49:00.793Z,0.00
2018-03-23T03:50:00.820Z,0.00
2018-03-23T03:51:00.918Z,0.00
2018-03-23T03:52:00.713Z,0.00
2018-03-23T03:53:00.690Z,0.00
2018-03-23T03:54:00.658Z,0.00
2018-03-23T03:55:00.622Z,0.00
2018-03-23T03:56:00.719Z,0.00
2018-03-23T03:57:00.580Z,0.00
2018-03-23T03:58:00.543Z,0.00
2018-03-23T03:59:00.524Z,0.00
2018-03-23T04:00:00.522Z,0.00
2018-03-23T04:01:00.540Z,0.00
2018-03-23T04:02:00.579Z,0.00
2018-03-23T04:03:00.490Z,0.00
2018-03-23T04:04:00.386Z,0.00
2018-03-23T04:05:00.372Z,0.00
2018-03-23T04:06:00.412Z,0.00
2018-03-23T04:07:00.322Z,0.00
2018-03-23T04:08:00.426Z,0.00
2018-03-23T04:09:00.283Z,0.00
2018-03-23T04:10:00.268Z,0.00
2018-03-23T04:11:00.267Z,0.00
2018-03-23T04:12:00.193Z,0.00
2018-03-23T04:13:00.265Z,0.00
2018-03-23T04:14:00.151Z,0.00
2018-03-23T04:15:00.141Z,0.00
2018-03-23T04:16:00.099Z,0.00
2018-03-23T04:17:00.069Z,0.00
2018-03-23T04:18:00.133Z,0.00
2018-03-23T04:19:00.015Z,0.00
2018-03-23T04:20:00.014Z,0.00
2018-03-23T04:20:59.965Z,0.00
2018-03-23T04:21:59.941Z,0.00
2018-03-23T04:23:00.013Z,0.00
2018-03-23T04:23:59.867Z,0.00
2018-03-23T04:24:59.846Z,0.00
2018-03-23T04:25:59.835Z,0.00
2018-03-23T04:26:59.814Z,0.00
2018-03-23T04:27:59.883Z,0.00
2018-03-23T04:28:59.746Z,0.00
2018-03-23T04:29:59.717Z,0.00
2018-03-23T04:30:59.708Z,0.00
2018-03-23T04:31:59.668Z,0.00
2018-03-23T04:32:59.732Z,0.00
2018-03-23T04:33:59.617Z,0.00
2018-03-23T04:34:59.588Z,0.00
2018-03-23T04:35:59.574Z,0.00
2018-03-23T04:36:59.542Z,0.00
2018-03-23T04:37:59.550Z,0.00
2018-03-23T04:38:59.597Z,0.00
2018-03-23T04:39:59.442Z,0.00
2018-03-23T04:40:59.436Z,0.00
2018-03-23T04:41:59.420Z,0.00
2018-03-23T04:42:59.373Z,0.00
2018-03-23T04:43:59.365Z,0.00
2018-03-23T04:44:59.456Z,0.00
2018-03-23T04:45:59.371Z,0.00
2018-03-23T04:46:59.296Z,0.00
2018-03-23T04:47:59.251Z,0.00
2018-03-23T04:48:59.220Z,0.00
2018-03-23T04:49:59.294Z,0.00
2018-03-23T04:50:59.172Z,0.00
2018-03-23T04:51:59.154Z,0.00
2018-03-23T04:52:59.128Z,0.00
2018-03-23T04:53:59.086Z,0.00
2018-03-23T04:54:59.175Z,0.00
2018-03-23T04:55:59.050Z,0.00
2018-03-23T04:56:59.028Z,0.00
2018-03-23T04:57:59.023Z,0.00
2018-03-23T04:58:58.972Z,0.00
2018-03-23T04:59:59.054Z,0.00
2018-03-23T05:00:58.916Z,0.00
2018-03-23T05:01:58.873Z,0.00
2018-03-23T05:02:58.859Z,0.00
2018-03-23T05:03:58.825Z,0.00
2018-03-23T05:04:58.958Z,0.00
2018-03-23T05:05:58.794Z,0.00
2018-03-23T05:06:58.748Z,0.00
2018-03-23T05:07:58.770Z,0.00
2018-03-23T05:08:58.774Z,0.00
2018-03-23T05:09:58.712Z,0.00
2018-03-23T05:10:58.756Z,0.00
2018-03-23T05:11:58.657Z,0.00
2018-03-23T05:12:58.597Z,0.00
2018-03-23T05:13:58.588Z,0.00
2018-03-23T05:14:58.539Z,0.00
2018-03-23T05:15:58.617Z,0.00
2018-03-23T05:16:58.509Z,0.00
2018-03-23T05:17:58.470Z,0.00
2018-03-23T05:18:58.446Z,0.00
2018-03-23T05:19:58.412Z,0.00
2018-03-23T05:20:58.383Z,0.00
2018-03-23T05:21:58.442Z,0.00
2018-03-23T05:22:58.340Z,0.00
2018-03-23T05:23:58.329Z,0.00
2018-03-23T05:24:58.270Z,0.00
2018-03-23T05:25:58.279Z,0.00
2018-03-23T05:26:58.330Z,0.00
2018-03-23T05:27:58.191Z,0.00
2018-03-23T05:28:58.180Z,0.00
2018-03-23T05:29:58.142Z,0.00
2018-03-23T05:30:58.136Z,0.00
2018-03-23T05:31:58.203Z,0.00
2018-03-23T05:32:58.052Z,0.00
2018-03-23T05:33:58.042Z,0.00
2018-03-23T05:34:58.021Z,0.00
2018-03-23T05:35:57.972Z,0.00
2018-03-23T05:36:58.043Z,0.00
2018-03-23T05:37:57.931Z,0.00
2018-03-23T05:38:57.913Z,0.00
2018-03-23T05:39:57.885Z,0.00
2018-03-23T05:40:57.843Z,0.00
2018-03-23T05:41:57.942Z,0.00
2018-03-23T05:42:57.789Z,0.00
2018-03-23T05:43:57.759Z,0.00
2018-03-23T05:44:57.779Z,0.00
2018-03-23T05:45:57.706Z,0.00
2018-03-23T05:46:57.744Z,0.00
2018-03-23T05:47:57.770Z,0.00
2018-03-23T05:48:57.644Z,0.00
2018-03-23T05:49:57.617Z,0.00
2018-03-23T05:50:57.586Z,0.00
2018-03-23T05:51:57.541Z,0.00
2018-03-23T05:52:57.645Z,0.00
2018-03-23T05:53:57.513Z,0.00
2018-03-23T05:54:57.487Z,0.00
2018-03-23T05:55:57.447Z,0.00
2018-03-23T05:56:57.410Z,0.00
2018-03-23T05:57:57.426Z,0.00
2018-03-23T05:58:57.451Z,0.00
2018-03-23T05:59:57.389Z,0.00
2018-03-23T06:00:57.354Z,0.00
2018-03-23T06:01:57.290Z,0.00
2018-03-23T06:02:57.253Z,0.00
2018-03-23T06:03:57.238Z,0.00
2018-03-23T06:04:57.303Z,0.00
2018-03-23T06:05:57.195Z,0.00
2018-03-23T06:06:57.170Z,0.00
2018-03-23T06:07:57.159Z,0.00
2018-03-23T06:08:57.082Z,0.00
2018-03-23T06:09:57.170Z,0.00
2018-03-23T06:10:57.034Z,0.00
2018-03-23T06:11:57.021Z,0.00
2018-03-23T06:12:56.999Z,0.00
2018-03-23T06:13:56.956Z,0.00
2018-03-23T06:14:57.100Z,0.00
2018-03-23T06:15:56.913Z,0.00
2018-03-23T06:16:56.910Z,0.00
2018-03-23T06:17:56.876Z,0.00
2018-03-23T06:18:56.845Z,0.00
2018-03-23T06:19:56.855Z,0.00
2018-03-23T06:20:56.902Z,0.00
2018-03-23T06:21:56.736Z,0.00
2018-03-23T06:22:56.718Z,0.00
2018-03-23T06:23:56.713Z,0.00
2018-03-23T06:24:56.689Z,0.00
2018-03-23T06:25:56.745Z,0.00
2018-03-23T06:26:56.609Z,0.00
2018-03-23T06:27:56.698Z,0.00
2018-03-23T06:28:56.570Z,0.00
2018-03-23T06:29:56.548Z,0.00
2018-03-23T06:30:56.626Z,0.00
2018-03-23T06:31:56.487Z,0.00
2018-03-23T06:32:56.456Z,0.00
2018-03-23T06:33:56.455Z,0.00
2018-03-23T06:34:56.417Z,0.00
2018-03-23T06:35:56.376Z,0.00
2018-03-23T06:36:56.466Z,0.00
2018-03-23T06:37:56.310Z,0.00
2018-03-23T06:38:56.307Z,0.00
2018-03-23T06:39:56.268Z,0.00
2018-03-23T06:40:56.258Z,0.00
2018-03-23T06:41:56.328Z,0.00
2018-03-23T06:42:56.170Z,0.00
2018-03-23T06:43:56.157Z,0.00
2018-03-23T06:44:56.133Z,0.00
2018-03-23T06:45:56.106Z,0.00
2018-03-23T06:46:56.189Z,0.00
2018-03-23T06:47:56.045Z,0.00
2018-03-23T06:48:56.028Z,0.00
2018-03-23T06:49:55.998Z,0.00
2018-03-23T06:50:55.996Z,0.00
2018-03-23T06:51:55.999Z,0.00
2018-03-23T06:52:56.002Z,0.00
2018-03-23T06:53:55.886Z,0.00
2018-03-23T06:54:55.933Z,0.00
2018-03-23T06:55:55.839Z,0.00
2018-03-23T06:56:55.794Z,0.00
2018-03-23T06:57:55.834Z,0.00
2018-03-23T06:58:55.883Z,0.00
2018-03-23T06:59:55.732Z,0.00
2018-03-23T07:00:55.697Z,0.00
2018-03-23T07:01:55.673Z,0.00
2018-03-23T07:02:55.682Z,0.00
2018-03-23T07:03:55.740Z,0.00
2018-03-23T07:04:55.595Z,0.00
2018-03-23T07:05:55.559Z,0.00
2018-03-23T07:06:55.560Z,0.00
2018-03-23T07:07:55.530Z,0.00
2018-03-23T07:08:55.578Z,0.00
2018-03-23T07:09:55.454Z,0.00
2018-03-23T07:10:55.470Z,0.00
2018-03-23T07:11:55.420Z,0.00
2018-03-23T07:12:55.374Z,0.00
2018-03-23T07:13:55.356Z,0.00
2018-03-23T07:14:55.425Z,0.00
2018-03-23T07:15:55.305Z,0.00
2018-03-23T07:16:55.261Z,0.00
2018-03-23T07:17:55.246Z,0.00
2018-03-23T07:18:55.234Z,0.00
2018-03-23T07:19:55.286Z,0.00
2018-03-23T07:20:55.167Z,0.00
2018-03-23T07:21:55.139Z,0.00
2018-03-23T07:22:55.106Z,0.00
2018-03-23T07:23:55.094Z,0.00
2018-03-23T07:24:55.181Z,0.00
2018-03-23T07:25:55.038Z,0.00
2018-03-23T07:26:55.015Z,0.00
2018-03-23T07:27:54.965Z,0.00
2018-03-23T07:28:54.941Z,0.00
2018-03-23T07:29:54.969Z,0.00
2018-03-23T07:30:54.982Z,0.00
2018-03-23T07:31:54.879Z,0.00
2018-03-23T07:32:54.839Z,0.00
2018-03-23T07:33:54.829Z,0.00
2018-03-23T07:34:54.773Z,0.00
2018-03-23T07:35:54.845Z,0.00
2018-03-23T07:36:54.751Z,0.00
2018-03-23T07:37:54.701Z,0.00
2018-03-23T07:38:54.680Z,0.00
2018-03-23T07:39:54.653Z,0.00
2018-03-23T07:40:54.739Z,0.00
2018-03-23T07:41:54.591Z,0.00
2018-03-23T07:42:54.559Z,0.00
2018-03-23T07:43:54.544Z,0.00
2018-03-23T07:44:54.501Z,0.00
2018-03-23T07:45:54.566Z,0.00
2018-03-23T07:46:54.448Z,0.00
2018-03-23T07:47:54.436Z,0.00
2018-03-23T07:48:54.405Z,0.00
2018-03-23T07:49:54.371Z,0.00
2018-03-23T07:50:54.363Z,0.00
2018-03-23T07:51:54.425Z,0.00
2018-03-23T07:52:54.280Z,0.00
2018-03-23T07:53:54.253Z,0.00
2018-03-23T07:54:54.262Z,0.00
2018-03-23T07:55:54.216Z,0.00
2018-03-23T07:56:54.286Z,0.00
2018-03-23T07:57:54.188Z,0.00
2018-03-23T07:58:54.130Z,0.00
2018-03-23T07:59:54.089Z,0.00
2018-03-23T08:00:54.074Z,0.00
2018-03-23T08:01:54.124Z,0.00
2018-03-23T08:02:54.136Z,0.00
2018-03-23T08:03:54.014Z,0.00
2018-03-23T08:04:53.984Z,0.00
2018-03-23T08:05:53.969Z,0.00
2018-03-23T08:06:53.911Z,0.00
2018-03-23T08:07:54.010Z,0.00
2018-03-23T08:08:53.904Z,0.00
2018-03-23T08:09:53.848Z,0.00
2018-03-23T08:10:53.826Z,0.00
2018-03-23T08:11:53.763Z,0.00
2018-03-23T08:12:53.879Z,0.00
2018-03-23T08:13:53.731Z,0.00
2018-03-23T08:14:53.690Z,0.00
2018-03-23T08:15:53.671Z,0.00
2018-03-23T08:16:53.656Z,0.00
2018-03-23T08:17:53.727Z,0.00
2018-03-23T08:18:53.575Z,0.00
2018-03-23T08:19:53.562Z,0.00
2018-03-23T08:20:53.514Z,0.00
2018-03-23T08:21:53.487Z,0.00
2018-03-23T08:22:53.588Z,0.00
2018-03-23T08:23:53.520Z,0.00
2018-03-23T08:24:53.406Z,0.00
2018-03-23T08:25:53.443Z,0.00
2018-03-23T08:26:53.363Z,0.00
2018-03-23T08:27:53.336Z,0.00
2018-03-23T08:28:53.396Z,0.00
2018-03-23T08:29:53.300Z,0.00
2018-03-23T08:30:53.253Z,0.00
2018-03-23T08:31:53.209Z,0.00
2018-03-23T08:32:53.196Z,0.00
2018-03-23T08:33:53.240Z,0.00
2018-03-23T08:34:53.238Z,0.00
2018-03-23T08:35:53.117Z,0.00
2018-03-23T08:36:53.079Z,0.00
2018-03-23T08:37:53.049Z,0.00
2018-03-23T08:38:53.036Z,0.00
2018-03-23T08:39:53.104Z,0.00
2018-03-23T08:40:52.961Z,0.00
2018-03-23T08:41:52.964Z,0.00
2018-03-23T08:42:52.916Z,0.00
2018-03-23T08:43:52.913Z,0.00
2018-03-23T08:44:52.973Z,0.00
2018-03-23T08:45:53.358Z,0.00
2018-03-23T08:46:52.807Z,0.00
2018-03-23T08:47:52.800Z,0.00
2018-03-23T08:48:52.768Z,0.00
2018-03-23T08:49:52.826Z,0.00
2018-03-23T08:50:52.700Z,0.00
2018-03-23T08:51:52.680Z,0.00
2018-03-23T08:52:52.649Z,0.00
2018-03-23T08:53:52.626Z,0.00
2018-03-23T08:54:52.674Z,0.00
2018-03-23T08:55:52.586Z,0.00
2018-03-23T08:56:52.547Z,0.00
2018-03-23T08:57:52.494Z,0.00
2018-03-23T08:58:52.466Z,0.00
2018-03-23T08:59:52.434Z,0.00
2018-03-23T09:00:52.522Z,0.00
2018-03-23T09:01:52.388Z,0.00
2018-03-23T09:02:52.355Z,0.00
2018-03-23T09:03:52.342Z,0.00
2018-03-23T09:04:52.312Z,0.00
2018-03-23T09:05:52.281Z,0.00
2018-03-23T09:06:52.363Z,0.00
2018-03-23T09:07:52.230Z,0.00
2018-03-23T09:08:52.219Z,0.00
2018-03-23T09:09:52.189Z,0.00
2018-03-23T09:10:52.148Z,0.00
2018-03-23T09:11:52.159Z,0.00
2018-03-23T09:12:52.195Z,0.00
2018-03-23T09:13:52.048Z,0.00
2018-03-23T09:14:52.018Z,0.00
2018-03-23T09:15:51.998Z,0.00
2018-03-23T09:16:51.968Z,0.00
2018-03-23T09:17:52.054Z,0.00
2018-03-23T09:18:51.962Z,0.00
2018-03-23T09:19:51.880Z,0.00
2018-03-23T09:20:51.865Z,0.00
2018-03-23T09:21:51.914Z,0.00
2018-03-23T09:22:51.920Z,0.00
2018-03-23T09:23:51.770Z,0.00
2018-03-23T09:24:51.775Z,0.00
2018-03-23T09:25:51.747Z,0.00
2018-03-23T09:26:51.712Z,0.00
2018-03-23T09:27:51.775Z,0.00
2018-03-23T09:28:51.631Z,0.00
2018-03-23T09:29:51.618Z,0.00
2018-03-23T09:30:51.617Z,0.00
2018-03-23T09:31:51.573Z,0.00
2018-03-23T09:32:52.038Z,0.00
2018-03-23T09:33:51.505Z,0.00
2018-03-23T09:34:51.473Z,0.00
2018-03-23T09:35:51.459Z,0.00
2018-03-23T09:36:51.414Z,0.00
2018-03-23T09:37:51.401Z,0.00
2018-03-23T09:38:51.486Z,0.00
2018-03-23T09:39:51.360Z,0.00
2018-03-23T09:40:51.304Z,0.00
2018-03-23T09:41:51.275Z,0.00
2018-03-23T09:42:51.255Z,0.00
2018-03-23T09:43:51.225Z,0.00
2018-03-23T09:44:51.325Z,0.00
2018-03-23T09:45:51.165Z,0.00
2018-03-23T09:46:51.153Z,0.00
2018-03-23T09:47:51.132Z,0.00
2018-03-23T09:48:51.102Z,0.00
2018-03-23T09:49:51.175Z,0.00
2018-03-23T09:50:51.132Z,0.00
2018-03-23T09:51:51.007Z,0.00
2018-03-23T09:52:50.977Z,0.00
2018-03-23T09:53:50.964Z,0.00
2018-03-23T09:54:51.055Z,0.00
2018-03-23T09:55:50.898Z,0.00
2018-03-23T09:56:50.886Z,0.00
2018-03-23T09:57:50.875Z,0.00
2018-03-23T09:58:50.825Z,0.00
2018-03-23T09:59:50.878Z,0.00
2018-03-23T10:00:50.777Z,0.00
2018-03-23T10:01:50.730Z,0.00
2018-03-23T10:02:50.748Z,0.00
2018-03-23T10:03:50.792Z,0.00
2018-03-23T10:04:50.753Z,0.00
2018-03-23T10:05:50.637Z,0.00
2018-03-23T10:06:50.606Z,0.00
2018-03-23T10:07:50.571Z,0.00
2018-03-23T10:08:50.547Z,0.00
2018-03-23T10:09:50.643Z,0.00
2018-03-23T10:10:50.485Z,0.00
2018-03-23T10:11:50.494Z,0.00
2018-03-23T10:12:50.479Z,0.00
2018-03-23T10:13:50.410Z,0.00
2018-03-23T10:14:50.375Z,0.00
2018-03-23T10:15:50.458Z,0.00
2018-03-23T10:16:50.315Z,0.00
2018-03-23T10:17:50.304Z,0.00
2018-03-23T10:18:50.280Z,0.00
2018-03-23T10:19:50.291Z,0.00
2018-03-23T10:20:50.310Z,0.00
2018-03-23T10:21:50.191Z,0.00
2018-03-23T10:22:50.188Z,0.00
2018-03-23T10:23:50.148Z,0.00
2018-03-23T10:24:50.123Z,0.00
2018-03-23T10:25:50.142Z,0.00
2018-03-23T10:26:50.034Z,0.00
2018-03-23T10:27:50.028Z,0.00
2018-03-23T10:28:50.021Z,0.00
2018-03-23T10:29:50.005Z,0.00
2018-03-23T10:30:50.080Z,0.00
2018-03-23T10:31:49.923Z,0.00
2018-03-23T10:32:49.878Z,0.00
2018-03-23T10:33:49.902Z,0.00
2018-03-23T10:34:49.870Z,0.00
2018-03-23T10:35:49.907Z,0.00
2018-03-23T10:36:49.786Z,0.00
2018-03-23T10:37:49.749Z,0.00
2018-03-23T10:38:49.722Z,0.00
2018-03-23T10:39:49.708Z,0.00
2018-03-23T10:40:49.770Z,0.00
2018-03-23T10:41:49.688Z,0.00
2018-03-23T10:42:49.632Z,0.00
2018-03-23T10:43:49.582Z,0.00
2018-03-23T10:44:49.567Z,0.00
2018-03-23T10:45:49.623Z,0.00
2018-03-23T10:46:49.506Z,0.00
2018-03-23T10:47:49.478Z,0.00
2018-03-23T10:48:49.474Z,0.00
2018-03-23T10:49:49.451Z,0.00
2018-03-23T10:50:49.382Z,0.00
2018-03-23T10:51:49.485Z,0.00
2018-03-23T10:52:49.333Z,0.00
2018-03-23T10:53:49.308Z,0.00
2018-03-23T10:54:49.273Z,0.00
2018-03-23T10:55:49.252Z,0.00
2018-03-23T10:56:49.223Z,0.00
2018-03-23T10:57:49.303Z,0.00
2018-03-23T10:58:49.211Z,0.00
2018-03-23T10:59:49.162Z,0.00
2018-03-23T11:00:49.133Z,0.00
2018-03-23T11:01:49.129Z,0.00
2018-03-23T11:02:49.173Z,0.00
2018-03-23T11:03:49.051Z,0.00
2018-03-23T11:04:49.006Z,0.00
2018-03-23T11:05:48.992Z,0.00
2018-03-23T11:06:48.957Z,0.00
2018-03-23T11:07:49.030Z,0.00
2018-03-23T11:08:48.896Z,0.00
2018-03-23T11:09:48.866Z,0.00
2018-03-23T11:10:48.853Z,0.00
2018-03-23T11:11:48.821Z,0.00
2018-03-23T11:12:48.894Z,0.00
2018-03-23T11:13:48.791Z,0.00
2018-03-23T11:14:48.743Z,0.00
2018-03-23T11:15:48.787Z,0.00
2018-03-23T11:16:48.688Z,0.00
2018-03-23T11:17:48.792Z,0.00
2018-03-23T11:18:48.634Z,0.00
2018-03-23T11:19:48.589Z,0.00
2018-03-23T11:20:48.585Z,0.00
2018-03-23T11:21:48.559Z,0.00
2018-03-23T11:22:48.614Z,0.00
2018-03-23T11:23:48.596Z,0.00
2018-03-23T11:24:48.449Z,0.00
2018-03-23T11:25:48.431Z,0.00
2018-03-23T11:26:48.417Z,0.00
2018-03-23T11:27:48.406Z,0.00
2018-03-23T11:28:48.397Z,0.00
2018-03-23T11:29:48.444Z,0.00
2018-03-23T11:30:48.319Z,0.00
2018-03-23T11:31:48.289Z,0.00
2018-03-23T11:32:48.258Z,0.00
2018-03-23T11:33:48.305Z,0.00
2018-03-23T11:34:48.282Z,0.00
2018-03-23T11:35:48.169Z,0.00
2018-03-23T11:36:48.172Z,0.00
2018-03-23T11:37:48.094Z,0.00
2018-03-23T11:38:48.077Z,0.00
2018-03-23T11:39:48.158Z,0.00
2018-03-23T11:40:48.056Z,0.00
2018-03-23T11:41:47.992Z,0.00
2018-03-23T11:42:48.016Z,0.00
2018-03-23T11:43:47.946Z,0.00
2018-03-23T11:44:48.019Z,0.00
2018-03-23T11:45:47.886Z,0.00
2018-03-23T11:46:47.872Z,0.00
2018-03-23T11:47:47.853Z,0.00
2018-03-23T11:48:47.816Z,0.00
2018-03-23T11:49:47.903Z,5.63
2018-03-23T11:50:47.808Z,5.63
2018-03-23T11:51:48.035Z,5.63
2018-03-23T11:52:48.111Z,5.63
2018-03-23T11:53:47.780Z,5.63
2018-03-23T11:54:47.686Z,5.63
2018-03-23T11:55:47.783Z,5.63
2018-03-23T11:56:47.605Z,11.25
2018-03-23T11:57:47.595Z,11.25
2018-03-23T11:58:47.598Z,11.25
2018-03-23T11:59:47.522Z,11.25
2018-03-23T12:00:48.314Z,11.25
2018-03-23T12:01:50.510Z,11.25
2018-03-23T12:02:48.616Z,16.88
2018-03-23T12:03:47.592Z,16.88
2018-03-23T12:04:47.398Z,16.88
2018-03-23T12:05:47.586Z,16.88
2018-03-23T12:06:47.519Z,16.88
2018-03-23T12:07:47.585Z,16.88
2018-03-23T12:08:47.354Z,16.88
2018-03-23T12:09:47.238Z,22.50
2018-03-23T12:10:47.265Z,28.13
2018-03-23T12:11:47.183Z,33.75
2018-03-23T12:12:47.258Z,39.38
2018-03-23T12:13:47.132Z,39.38
2018-03-23T12:14:47.119Z,39.38
2018-03-23T12:15:47.062Z,39.38
2018-03-23T12:16:47.040Z,39.38
2018-03-23T12:17:47.110Z,45.00
2018-03-23T12:18:47.000Z,50.63
2018-03-23T12:19:46.977Z,50.63
2018-03-23T12:20:46.929Z,50.63
2018-03-23T12:21:46.893Z,45.00
2018-03-23T12:22:46.982Z,45.00
2018-03-23T12:23:46.889Z,45.00
2018-03-23T12:24:46.845Z,45.00
2018-03-23T12:25:46.792Z,50.63
2018-03-23T12:26:46.782Z,50.63
2018-03-23T12:27:46.819Z,50.63
2018-03-23T12:28:46.840Z,56.25
2018-03-23T12:29:46.693Z,61.88
2018-03-23T12:30:46.724Z,67.50
2018-03-23T12:31:46.619Z,67.50
2018-03-23T12:32:46.621Z,95.63
2018-03-23T12:33:46.686Z,123.75
2018-03-23T12:34:46.614Z,135.00
2018-03-23T12:35:46.507Z,140.63
2018-03-23T12:36:46.493Z,140.63
2018-03-23T12:37:46.482Z,146.25
2018-03-23T12:38:46.435Z,151.88
2018-03-23T12:39:46.505Z,151.88
2018-03-23T12:40:46.395Z,157.50
2018-03-23T12:41:46.430Z,163.13
2018-03-23T12:42:46.345Z,168.75
2018-03-23T12:43:46.315Z,168.75
2018-03-23T12:44:46.279Z,168.75
2018-03-23T12:45:46.404Z,174.38
2018-03-23T12:46:46.249Z,174.38
2018-03-23T12:47:46.208Z,180.00
2018-03-23T12:48:46.193Z,180.00
2018-03-23T12:49:46.176Z,180.00
2018-03-23T12:50:46.271Z,180.00
2018-03-23T12:51:46.124Z,180.00
2018-03-23T12:52:46.098Z,180.00
2018-03-23T12:53:46.062Z,180.00
2018-03-23T12:54:46.075Z,180.00
2018-03-23T12:55:46.179Z,174.38
2018-03-23T12:56:46.005Z,157.50
2018-03-23T12:57:46.039Z,135.00
2018-03-23T12:58:45.961Z,123.75
2018-03-23T12:59:45.921Z,106.88
2018-03-23T13:00:46.159Z,95.63
2018-03-23T13:01:45.901Z,95.63
2018-03-23T13:02:45.850Z,95.63
2018-03-23T13:03:45.890Z,95.63
2018-03-23T13:04:45.830Z,95.63
2018-03-23T13:05:45.832Z,95.63
2018-03-23T13:06:45.976Z,95.63
2018-03-23T13:07:45.741Z,90.00
2018-03-23T13:08:45.752Z,90.00
2018-03-23T13:09:45.702Z,90.00
2018-03-23T13:10:45.679Z,90.00
2018-03-23T13:11:45.761Z,90.00
2018-03-23T13:12:45.630Z,95.63
2018-03-23T13:13:45.618Z,90.00
2018-03-23T13:14:45.636Z,95.63